sensor_id;sensor_type;location;lat;lon;timestamp;P1;durP1;ratioP1;P2;durP2;ratioP2
76196;SDS011;64974;53.144;17.962;2022-12-24T10:43:58;22.67;;;9.75;;
76196;SDS011;64974;53.144;17.962;2022-12-24T10:46:37;26.00;;;11.88;;
76196;SDS011;64974;53.144;17.962;2022-12-24T10:49:07;25.00;;;12.52;;
76196;SDS011;64974;53.144;17.962;2022-12-24T10:54:19;35.95;;;17.08;;
76196;SDS011;64974;53.144;17.962;2022-12-24T10:56:47;40.00;;;17.27;;
76196;SDS011;64974;53.144;17.962;2022-12-24T10:59:25;26.75;;;12.32;;
76196;SDS011;64974;53.144;17.962;2022-12-24T11:02:03;19.00;;;10.27;;
76196;SDS011;64974;53.144;17.962;2022-12-24T11:04:52;20.38;;;12.82;;
76196;SDS011;64974;53.144;17.962;2022-12-24T11:07:19;18.98;;;11.00;;
76196;SDS011;64974;53.144;17.962;2022-12-24T11:10:03;30.83;;;13.43;;
76196;SDS011;64974;53.144;17.962;2022-12-24T11:12:31;26.48;;;13.77;;
76196;SDS011;64974;53.144;17.962;2022-12-24T11:15:18;29.55;;;13.85;;
76196;SDS011;64974;53.144;17.962;2022-12-24T11:17:53;27.85;;;12.48;;
76196;SDS011;64974;53.144;17.962;2022-12-24T11:20:30;24.13;;;12.02;;
76196;SDS011;64974;53.144;17.962;2022-12-24T11:23:29;21.77;;;9.77;;
76196;SDS011;64974;53.144;17.962;2022-12-24T11:25:55;22.80;;;11.52;;
76196;SDS011;64974;53.144;17.962;2022-12-24T11:28:33;33.58;;;14.30;;
76196;SDS011;64974;53.144;17.962;2022-12-24T11:36:23;48.28;;;19.88;;
76196;SDS011;64974;53.144;17.962;2022-12-24T11:38:52;74.75;;;27.42;;
76196;SDS011;64974;53.144;17.962;2022-12-24T11:41:19;42.45;;;17.60;;
76196;SDS011;64974;53.144;17.962;2022-12-24T11:43:49;25.33;;;10.85;;
76196;SDS011;64974;53.144;17.962;2022-12-24T11:49:30;49.83;;;20.83;;
76196;SDS011;64974;53.144;17.962;2022-12-24T12:04:00;21.05;;;9.13;;
76196;SDS011;64974;53.144;17.962;2022-12-24T12:09:37;19.38;;;10.20;;
76196;SDS011;64974;53.144;17.962;2022-12-24T12:12:21;17.55;;;10.15;;
76196;SDS011;64974;53.144;17.962;2022-12-24T12:15:21;20.48;;;10.15;;
76196;SDS011;64974;53.144;17.962;2022-12-24T12:24:43;21.05;;;8.18;;
76196;SDS011;64974;53.144;17.962;2022-12-24T12:27:50;17.00;;;8.25;;
76196;SDS011;64974;53.144;17.962;2022-12-24T12:30:06;27.23;;;13.55;;
76196;SDS011;64974;53.144;17.962;2022-12-24T12:32:50;21.65;;;9.73;;
76196;SDS011;64974;53.144;17.962;2022-12-24T12:35:47;18.55;;;9.10;;
76196;SDS011;64974;53.144;17.962;2022-12-24T12:38:16;16.08;;;9.50;;
76196;SDS011;64974;53.144;17.962;2022-12-24T12:40:54;25.85;;;13.57;;
76196;SDS011;64974;53.144;17.962;2022-12-24T12:43:34;28.33;;;14.05;;
76196;SDS011;64974;53.144;17.962;2022-12-24T12:46:07;30.80;;;13.85;;
76196;SDS011;64974;53.144;17.962;2022-12-24T12:49:11;25.90;;;11.90;;
76196;SDS011;64974;53.144;17.962;2022-12-24T12:57:07;26.90;;;11.23;;
76196;SDS011;64974;53.144;17.962;2022-12-24T12:59:43;22.58;;;11.43;;
76196;SDS011;64974;53.144;17.962;2022-12-24T13:11:05;24.77;;;10.05;;
76196;SDS011;64974;53.144;17.962;2022-12-24T13:19:09;19.42;;;10.30;;
76196;SDS011;64974;53.144;17.962;2022-12-24T13:21:53;21.73;;;10.00;;
76196;SDS011;64974;53.144;17.962;2022-12-24T13:24:20;21.50;;;10.23;;
76196;SDS011;64974;53.144;17.962;2022-12-24T13:26:59;26.77;;;11.43;;
76196;SDS011;64974;53.144;17.962;2022-12-24T13:34:44;20.63;;;11.20;;
76196;SDS011;64974;53.144;17.962;2022-12-24T13:37:22;22.25;;;10.90;;
76196;SDS011;64974;53.144;17.962;2022-12-24T13:42:57;25.25;;;11.48;;
76196;SDS011;64974;53.144;17.962;2022-12-24T13:50:42;31.90;;;14.00;;
76196;SDS011;64974;53.144;17.962;2022-12-24T13:53:42;38.10;;;19.40;;
76196;SDS011;64974;53.144;17.962;2022-12-24T13:56:09;32.42;;;15.68;;
76196;SDS011;64974;53.144;17.962;2022-12-24T13:58:47;35.70;;;15.15;;
76196;SDS011;64974;53.144;17.962;2022-12-24T14:01:15;31.63;;;13.52;;
76196;SDS011;64974;53.144;17.962;2022-12-24T14:03:44;33.30;;;15.40;;
76196;SDS011;64974;53.144;17.962;2022-12-24T14:06:27;31.95;;;16.08;;
76196;SDS011;64974;53.144;17.962;2022-12-24T14:14:29;53.77;;;22.47;;
76196;SDS011;64974;53.144;17.962;2022-12-24T14:16:59;51.10;;;22.08;;
76196;SDS011;64974;53.144;17.962;2022-12-24T14:19:37;33.58;;;16.10;;
76196;SDS011;64974;53.144;17.962;2022-12-24T14:22:16;23.20;;;11.82;;
76196;SDS011;64974;53.144;17.962;2022-12-24T14:24:47;24.15;;;11.30;;
76196;SDS011;64974;53.144;17.962;2022-12-24T14:27:16;28.35;;;12.70;;
76196;SDS011;64974;53.144;17.962;2022-12-24T14:29:48;25.17;;;12.13;;
76196;SDS011;64974;53.144;17.962;2022-12-24T14:32:16;24.75;;;12.10;;
76196;SDS011;64974;53.144;17.962;2022-12-24T14:34:41;29.48;;;13.27;;
76196;SDS011;64974;53.144;17.962;2022-12-24T14:37:07;27.00;;;12.48;;
76196;SDS011;64974;53.144;17.962;2022-12-24T14:39:36;33.85;;;16.77;;
76196;SDS011;64974;53.144;17.962;2022-12-24T14:42:21;36.05;;;19.20;;
76196;SDS011;64974;53.144;17.962;2022-12-24T14:44:58;39.85;;;20.50;;
76196;SDS011;64974;53.144;17.962;2022-12-24T14:56:12;47.58;;;21.10;;
76196;SDS011;64974;53.144;17.962;2022-12-24T14:58:39;50.70;;;23.63;;
76196;SDS011;64974;53.144;17.962;2022-12-24T15:01:24;49.63;;;24.80;;
76196;SDS011;64974;53.144;17.962;2022-12-24T15:04:00;50.05;;;22.30;;
76196;SDS011;64974;53.144;17.962;2022-12-24T15:06:33;49.97;;;22.83;;
76196;SDS011;64974;53.144;17.962;2022-12-24T15:09:00;43.70;;;22.30;;
76196;SDS011;64974;53.144;17.962;2022-12-24T15:11:25;39.63;;;18.52;;
76196;SDS011;64974;53.144;17.962;2022-12-24T15:13:54;32.72;;;16.02;;
76196;SDS011;64974;53.144;17.962;2022-12-24T15:16:22;35.13;;;15.75;;
76196;SDS011;64974;53.144;17.962;2022-12-24T15:19:05;27.95;;;14.88;;
76196;SDS011;64974;53.144;17.962;2022-12-24T15:21:34;35.65;;;16.30;;
76196;SDS011;64974;53.144;17.962;2022-12-24T15:24:01;32.13;;;14.98;;
76196;SDS011;64974;53.144;17.962;2022-12-24T15:26:30;36.08;;;16.40;;
76196;SDS011;64974;53.144;17.962;2022-12-24T15:28:59;31.45;;;14.50;;
76196;SDS011;64974;53.144;17.962;2022-12-24T15:31:25;39.10;;;17.63;;
76196;SDS011;64974;53.144;17.962;2022-12-24T15:33:53;38.10;;;17.58;;
76196;SDS011;64974;53.144;17.962;2022-12-24T15:36:25;37.90;;;17.65;;
76196;SDS011;64974;53.144;17.962;2022-12-24T15:38:51;48.17;;;19.58;;
76196;SDS011;64974;53.144;17.962;2022-12-24T15:41:19;65.63;;;23.95;;
76196;SDS011;64974;53.144;17.962;2022-12-24T15:43:46;76.93;;;27.85;;
76196;SDS011;64974;53.144;17.962;2022-12-24T15:48:48;60.35;;;22.00;;
76196;SDS011;64974;53.144;17.962;2022-12-24T15:51:19;90.53;;;31.83;;
76196;SDS011;64974;53.144;17.962;2022-12-24T15:53:46;84.68;;;32.25;;
76196;SDS011;64974;53.144;17.962;2022-12-24T15:56:26;56.25;;;22.08;;
76196;SDS011;64974;53.144;17.962;2022-12-24T15:59:10;37.05;;;15.48;;
76196;SDS011;64974;53.144;17.962;2022-12-24T16:01:35;42.83;;;16.65;;
76196;SDS011;64974;53.144;17.962;2022-12-24T16:04:09;39.08;;;15.80;;
76196;SDS011;64974;53.144;17.962;2022-12-24T16:12:00;38.22;;;16.40;;
76196;SDS011;64974;53.144;17.962;2022-12-24T16:14:26;35.75;;;15.85;;
76196;SDS011;64974;53.144;17.962;2022-12-24T16:16:51;34.95;;;16.23;;
76196;SDS011;64974;53.144;17.962;2022-12-24T16:19:29;36.95;;;17.17;;
76196;SDS011;64974;53.144;17.962;2022-12-24T16:21:56;33.30;;;15.88;;
76196;SDS011;64974;53.144;17.962;2022-12-24T16:24:23;33.92;;;15.13;;
76196;SDS011;64974;53.144;17.962;2022-12-24T16:26:51;34.70;;;15.60;;
76196;SDS011;64974;53.144;17.962;2022-12-24T16:29:16;32.63;;;15.70;;
76196;SDS011;64974;53.144;17.962;2022-12-24T16:31:55;27.88;;;14.88;;
76196;SDS011;64974;53.144;17.962;2022-12-24T16:34:23;34.53;;;16.45;;
76196;SDS011;64974;53.144;17.962;2022-12-24T16:36:58;34.42;;;15.23;;
76196;SDS011;64974;53.144;17.962;2022-12-24T16:39:25;31.77;;;15.00;;
76196;SDS011;64974;53.144;17.962;2022-12-24T16:41:55;29.60;;;13.32;;
76196;SDS011;64974;53.144;17.962;2022-12-24T16:44:40;27.80;;;13.98;;
76196;SDS011;64974;53.144;17.962;2022-12-24T16:47:08;36.13;;;15.85;;
76196;SDS011;64974;53.144;17.962;2022-12-24T16:49:42;37.15;;;15.57;;
76196;SDS011;64974;53.144;17.962;2022-12-24T16:52:13;32.85;;;16.98;;
76196;SDS011;64974;53.144;17.962;2022-12-24T16:54:49;38.92;;;17.85;;
76196;SDS011;64974;53.144;17.962;2022-12-24T16:57:15;40.92;;;17.75;;
76196;SDS011;64974;53.144;17.962;2022-12-24T16:59:41;42.30;;;20.13;;
76196;SDS011;64974;53.144;17.962;2022-12-24T17:02:08;46.70;;;20.30;;
76196;SDS011;64974;53.144;17.962;2022-12-24T17:04:34;45.65;;;21.33;;
76196;SDS011;64974;53.144;17.962;2022-12-24T17:07:00;44.83;;;20.15;;
76196;SDS011;64974;53.144;17.962;2022-12-24T17:09:25;59.08;;;21.73;;
76196;SDS011;64974;53.144;17.962;2022-12-24T17:11:51;62.67;;;23.95;;
76196;SDS011;64974;53.144;17.962;2022-12-24T17:14:16;51.30;;;21.75;;
76196;SDS011;64974;53.144;17.962;2022-12-24T17:16:42;50.92;;;22.50;;
76196;SDS011;64974;53.144;17.962;2022-12-24T17:22:00;60.22;;;26.58;;
76196;SDS011;64974;53.144;17.962;2022-12-24T17:24:25;59.67;;;25.48;;
76196;SDS011;64974;53.144;17.962;2022-12-24T17:26:51;58.10;;;24.57;;
76196;SDS011;64974;53.144;17.962;2022-12-24T17:29:16;59.92;;;23.77;;
76196;SDS011;64974;53.144;17.962;2022-12-24T17:31:41;48.78;;;22.25;;
76196;SDS011;64974;53.144;17.962;2022-12-24T17:34:07;40.60;;;19.77;;
76196;SDS011;64974;53.144;17.962;2022-12-24T17:36:32;39.00;;;18.15;;
76196;SDS011;64974;53.144;17.962;2022-12-24T17:38:58;37.08;;;17.05;;
76196;SDS011;64974;53.144;17.962;2022-12-24T17:41:23;40.17;;;16.97;;
76196;SDS011;64974;53.144;17.962;2022-12-24T17:43:49;39.17;;;18.70;;
76196;SDS011;64974;53.144;17.962;2022-12-24T17:46:18;52.47;;;21.20;;
76196;SDS011;64974;53.144;17.962;2022-12-24T17:48:46;48.42;;;21.83;;
76196;SDS011;64974;53.144;17.962;2022-12-24T17:51:12;51.22;;;24.23;;
76196;SDS011;64974;53.144;17.962;2022-12-24T17:53:40;56.95;;;24.08;;
76196;SDS011;64974;53.144;17.962;2022-12-24T17:58:32;52.17;;;22.13;;
76196;SDS011;64974;53.144;17.962;2022-12-24T18:00:58;56.53;;;24.08;;
76196;SDS011;64974;53.144;17.962;2022-12-24T18:03:23;58.13;;;26.15;;
76196;SDS011;64974;53.144;17.962;2022-12-24T18:05:49;59.45;;;27.20;;
76196;SDS011;64974;53.144;17.962;2022-12-24T18:08:15;75.35;;;32.00;;
76196;SDS011;64974;53.144;17.962;2022-12-24T18:10:41;81.97;;;37.53;;
76196;SDS011;64974;53.144;17.962;2022-12-24T18:13:07;69.18;;;31.73;;
76196;SDS011;64974;53.144;17.962;2022-12-24T18:15:33;59.10;;;28.95;;
76196;SDS011;64974;53.144;17.962;2022-12-24T18:18:02;52.00;;;24.88;;
76196;SDS011;64974;53.144;17.962;2022-12-24T18:20:37;48.60;;;22.02;;
76196;SDS011;64974;53.144;17.962;2022-12-24T18:23:06;45.03;;;21.23;;
76196;SDS011;64974;53.144;17.962;2022-12-24T18:25:31;39.65;;;19.15;;
76196;SDS011;64974;53.144;17.962;2022-12-24T18:27:56;41.30;;;20.10;;
76196;SDS011;64974;53.144;17.962;2022-12-24T18:30:22;40.00;;;17.45;;
76196;SDS011;64974;53.144;17.962;2022-12-24T18:32:47;42.97;;;18.60;;
76196;SDS011;64974;53.144;17.962;2022-12-24T18:35:13;37.42;;;18.55;;
76196;SDS011;64974;53.144;17.962;2022-12-24T18:37:43;43.45;;;19.13;;
76196;SDS011;64974;53.144;17.962;2022-12-24T18:40:08;43.50;;;20.25;;
76196;SDS011;64974;53.144;17.962;2022-12-24T18:42:34;37.55;;;17.98;;
76196;SDS011;64974;53.144;17.962;2022-12-24T18:44:59;46.38;;;20.10;;
76196;SDS011;64974;53.144;17.962;2022-12-24T18:47:25;43.50;;;19.77;;
76196;SDS011;64974;53.144;17.962;2022-12-24T18:49:50;46.08;;;19.63;;
76196;SDS011;64974;53.144;17.962;2022-12-24T18:52:15;46.43;;;20.33;;
76196;SDS011;64974;53.144;17.962;2022-12-24T18:54:41;42.72;;;19.95;;
76196;SDS011;64974;53.144;17.962;2022-12-24T18:57:09;51.13;;;24.58;;
76196;SDS011;64974;53.144;17.962;2022-12-24T18:59:34;55.08;;;25.02;;
76196;SDS011;64974;53.144;17.962;2022-12-24T19:02:02;46.58;;;21.65;;
76196;SDS011;64974;53.144;17.962;2022-12-24T19:04:27;44.05;;;19.00;;
76196;SDS011;64974;53.144;17.962;2022-12-24T19:06:53;39.72;;;17.83;;
76196;SDS011;64974;53.144;17.962;2022-12-24T19:09:21;35.60;;;16.92;;
76196;SDS011;64974;53.144;17.962;2022-12-24T19:11:46;34.25;;;15.90;;
76196;SDS011;64974;53.144;17.962;2022-12-24T19:14:14;32.50;;;15.38;;
76196;SDS011;64974;53.144;17.962;2022-12-24T19:16:39;29.10;;;14.20;;
76196;SDS011;64974;53.144;17.962;2022-12-24T19:19:06;34.63;;;14.18;;
76196;SDS011;64974;53.144;17.962;2022-12-24T19:21:32;32.70;;;15.57;;
76196;SDS011;64974;53.144;17.962;2022-12-24T19:23:58;28.90;;;14.25;;
76196;SDS011;64974;53.144;17.962;2022-12-24T19:26:23;30.98;;;15.13;;
76196;SDS011;64974;53.144;17.962;2022-12-24T19:28:49;29.23;;;15.75;;
76196;SDS011;64974;53.144;17.962;2022-12-24T19:31:18;33.22;;;15.98;;
76196;SDS011;64974;53.144;17.962;2022-12-24T19:33:47;33.22;;;16.60;;
76196;SDS011;64974;53.144;17.962;2022-12-24T19:36:18;35.40;;;16.73;;
76196;SDS011;64974;53.144;17.962;2022-12-24T19:38:44;38.00;;;15.65;;
76196;SDS011;64974;53.144;17.962;2022-12-24T19:41:15;32.67;;;15.73;;
76196;SDS011;64974;53.144;17.962;2022-12-24T19:43:43;36.40;;;15.82;;
76196;SDS011;64974;53.144;17.962;2022-12-24T19:46:11;34.75;;;15.48;;
76196;SDS011;64974;53.144;17.962;2022-12-24T19:48:39;35.30;;;16.92;;
76196;SDS011;64974;53.144;17.962;2022-12-24T19:51:06;32.67;;;15.35;;
76196;SDS011;64974;53.144;17.962;2022-12-24T19:53:33;37.67;;;16.33;;
76196;SDS011;64974;53.144;17.962;2022-12-24T19:55:59;43.70;;;19.58;;
76196;SDS011;64974;53.144;17.962;2022-12-24T19:58:24;46.47;;;18.75;;
76196;SDS011;64974;53.144;17.962;2022-12-24T20:00:50;44.42;;;19.00;;
76196;SDS011;64974;53.144;17.962;2022-12-24T20:03:16;45.60;;;19.67;;
76196;SDS011;64974;53.144;17.962;2022-12-24T20:05:42;44.40;;;19.92;;
76196;SDS011;64974;53.144;17.962;2022-12-24T20:08:08;41.92;;;20.30;;
76196;SDS011;64974;53.144;17.962;2022-12-24T20:10:41;48.97;;;20.90;;
76196;SDS011;64974;53.144;17.962;2022-12-24T20:13:07;52.55;;;22.23;;
76196;SDS011;64974;53.144;17.962;2022-12-24T20:15:39;47.60;;;22.63;;
76196;SDS011;64974;53.144;17.962;2022-12-24T20:18:05;45.65;;;20.75;;
76196;SDS011;64974;53.144;17.962;2022-12-24T20:20:31;47.53;;;20.58;;
76196;SDS011;64974;53.144;17.962;2022-12-24T20:22:56;37.15;;;18.50;;
76196;SDS011;64974;53.144;17.962;2022-12-24T20:25:22;37.25;;;17.73;;
76196;SDS011;64974;53.144;17.962;2022-12-24T20:27:47;44.20;;;19.10;;
76196;SDS011;64974;53.144;17.962;2022-12-24T20:30:12;46.85;;;20.85;;
76196;SDS011;64974;53.144;17.962;2022-12-24T20:32:38;60.65;;;25.60;;
76196;SDS011;64974;53.144;17.962;2022-12-24T20:35:06;78.53;;;32.53;;
76196;SDS011;64974;53.144;17.962;2022-12-24T20:37:34;84.22;;;32.72;;
76196;SDS011;64974;53.144;17.962;2022-12-24T20:40:02;57.47;;;23.90;;
76196;SDS011;64974;53.144;17.962;2022-12-24T20:42:28;49.00;;;21.20;;
76196;SDS011;64974;53.144;17.962;2022-12-24T20:44:53;43.72;;;19.48;;
76196;SDS011;64974;53.144;17.962;2022-12-24T20:47:18;42.67;;;19.35;;
76196;SDS011;64974;53.144;17.962;2022-12-24T20:49:44;43.92;;;19.13;;
76196;SDS011;64974;53.144;17.962;2022-12-24T20:52:09;46.87;;;19.93;;
76196;SDS011;64974;53.144;17.962;2022-12-24T20:54:34;51.30;;;22.60;;
76196;SDS011;64974;53.144;17.962;2022-12-24T20:56:59;59.70;;;26.00;;
76196;SDS011;64974;53.144;17.962;2022-12-24T20:59:25;57.90;;;26.13;;
76196;SDS011;64974;53.144;17.962;2022-12-24T21:01:51;45.20;;;21.48;;
76196;SDS011;64974;53.144;17.962;2022-12-24T21:04:17;46.92;;;23.75;;
76196;SDS011;64974;53.144;17.962;2022-12-24T21:06:42;50.55;;;25.25;;
76196;SDS011;64974;53.144;17.962;2022-12-24T21:09:08;61.72;;;28.85;;
76196;SDS011;64974;53.144;17.962;2022-12-24T21:11:34;60.05;;;25.98;;
76196;SDS011;64974;53.144;17.962;2022-12-24T21:14:12;49.10;;;23.80;;
76196;SDS011;64974;53.144;17.962;2022-12-24T21:16:38;43.05;;;19.65;;
76196;SDS011;64974;53.144;17.962;2022-12-24T21:19:04;50.83;;;22.88;;
76196;SDS011;64974;53.144;17.962;2022-12-24T21:21:31;47.35;;;22.55;;
76196;SDS011;64974;53.144;17.962;2022-12-24T21:23:57;52.83;;;24.25;;
76196;SDS011;64974;53.144;17.962;2022-12-24T21:26:22;55.25;;;24.92;;
76196;SDS011;64974;53.144;17.962;2022-12-24T21:28:48;57.92;;;26.17;;
76196;SDS011;64974;53.144;17.962;2022-12-24T21:31:14;70.97;;;28.00;;
76196;SDS011;64974;53.144;17.962;2022-12-24T21:33:40;66.88;;;27.63;;
76196;SDS011;64974;53.144;17.962;2022-12-24T21:36:13;56.40;;;24.02;;
76196;SDS011;64974;53.144;17.962;2022-12-24T21:38:39;62.63;;;28.00;;
76196;SDS011;64974;53.144;17.962;2022-12-24T21:41:05;59.08;;;26.00;;
76196;SDS011;64974;53.144;17.962;2022-12-24T21:43:34;51.75;;;25.17;;
76196;SDS011;64974;53.144;17.962;2022-12-24T21:46:09;48.63;;;23.27;;
76196;SDS011;64974;53.144;17.962;2022-12-24T21:48:39;47.38;;;23.25;;
76196;SDS011;64974;53.144;17.962;2022-12-24T21:51:24;49.63;;;21.20;;
76196;SDS011;64974;53.144;17.962;2022-12-24T21:53:50;46.20;;;22.08;;
76196;SDS011;64974;53.144;17.962;2022-12-24T21:56:34;45.45;;;21.15;;
76196;SDS011;64974;53.144;17.962;2022-12-24T21:59:19;52.10;;;23.70;;
76196;SDS011;64974;53.144;17.962;2022-12-24T22:01:45;56.28;;;26.73;;
76196;SDS011;64974;53.144;17.962;2022-12-24T22:04:11;59.17;;;25.42;;
76196;SDS011;64974;53.144;17.962;2022-12-24T22:06:37;51.13;;;22.02;;
76196;SDS011;64974;53.144;17.962;2022-12-24T22:09:20;43.30;;;21.25;;
76196;SDS011;64974;53.144;17.962;2022-12-24T22:12:04;45.35;;;22.73;;
76196;SDS011;64974;53.144;17.962;2022-12-24T22:14:30;52.95;;;23.65;;
76196;SDS011;64974;53.144;17.962;2022-12-24T22:16:56;45.45;;;22.02;;
76196;SDS011;64974;53.144;17.962;2022-12-24T22:19:22;54.08;;;24.70;;
76196;SDS011;64974;53.144;17.962;2022-12-24T22:21:47;59.37;;;26.10;;
76196;SDS011;64974;53.144;17.962;2022-12-24T22:24:13;58.67;;;26.27;;
76196;SDS011;64974;53.144;17.962;2022-12-24T22:26:38;57.70;;;26.40;;
76196;SDS011;64974;53.144;17.962;2022-12-24T22:29:04;54.22;;;23.35;;
76196;SDS011;64974;53.144;17.962;2022-12-24T22:31:29;54.42;;;24.40;;
76196;SDS011;64974;53.144;17.962;2022-12-24T22:33:56;55.30;;;26.38;;
76196;SDS011;64974;53.144;17.962;2022-12-24T22:36:21;62.85;;;28.65;;
76196;SDS011;64974;53.144;17.962;2022-12-24T22:38:47;59.33;;;26.10;;
76196;SDS011;64974;53.144;17.962;2022-12-24T22:41:12;55.88;;;26.60;;
76196;SDS011;64974;53.144;17.962;2022-12-24T22:43:41;69.20;;;30.92;;
76196;SDS011;64974;53.144;17.962;2022-12-24T22:46:07;54.92;;;24.98;;
76196;SDS011;64974;53.144;17.962;2022-12-24T22:48:34;59.20;;;25.17;;
76196;SDS011;64974;53.144;17.962;2022-12-24T22:53:28;46.30;;;22.70;;
76196;SDS011;64974;53.144;17.962;2022-12-24T22:55:54;61.10;;;26.02;;
76196;SDS011;64974;53.144;17.962;2022-12-24T22:58:20;53.55;;;23.48;;
76196;SDS011;64974;53.144;17.962;2022-12-24T23:00:46;56.13;;;24.52;;
76196;SDS011;64974;53.144;17.962;2022-12-24T23:03:11;60.70;;;24.27;;
76196;SDS011;64974;53.144;17.962;2022-12-24T23:05:37;52.20;;;24.20;;
76196;SDS011;64974;53.144;17.962;2022-12-24T23:08:04;54.78;;;22.88;;
76196;SDS011;64974;53.144;17.962;2022-12-24T23:10:29;55.85;;;25.60;;
76196;SDS011;64974;53.144;17.962;2022-12-24T23:12:55;66.40;;;27.15;;
76196;SDS011;64974;53.144;17.962;2022-12-24T23:15:39;51.53;;;24.35;;
76196;SDS011;64974;53.144;17.962;2022-12-24T23:18:05;50.30;;;23.35;;
76196;SDS011;64974;53.144;17.962;2022-12-24T23:20:31;56.90;;;23.35;;
76196;SDS011;64974;53.144;17.962;2022-12-24T23:22:57;50.10;;;22.67;;
76196;SDS011;64974;53.144;17.962;2022-12-24T23:25:22;51.92;;;24.15;;
76196;SDS011;64974;53.144;17.962;2022-12-24T23:27:47;58.35;;;23.80;;
76196;SDS011;64974;53.144;17.962;2022-12-24T23:30:13;53.35;;;20.60;;
76196;SDS011;64974;53.144;17.962;2022-12-24T23:32:41;49.20;;;21.20;;
76196;SDS011;64974;53.144;17.962;2022-12-24T23:35:07;47.15;;;21.25;;
76196;SDS011;64974;53.144;17.962;2022-12-24T23:37:32;42.13;;;20.77;;
76196;SDS011;64974;53.144;17.962;2022-12-24T23:39:58;45.72;;;21.38;;
76196;SDS011;64974;53.144;17.962;2022-12-24T23:42:23;52.58;;;22.33;;
76196;SDS011;64974;53.144;17.962;2022-12-24T23:44:49;44.90;;;20.13;;
76196;SDS011;64974;53.144;17.962;2022-12-24T23:47:15;45.28;;;21.02;;
76196;SDS011;64974;53.144;17.962;2022-12-24T23:49:41;46.75;;;20.95;;
76196;SDS011;64974;53.144;17.962;2022-12-24T23:52:06;45.28;;;20.55;;
76196;SDS011;64974;53.144;17.962;2022-12-24T23:54:32;52.50;;;21.13;;
76196;SDS011;64974;53.144;17.962;2022-12-24T23:56:57;42.53;;;21.02;;
76196;SDS011;64974;53.144;17.962;2022-12-24T23:59:22;42.83;;;19.90;;
